createdAt,value
2023-04-30T00:00:20.418Z,30.97
2023-04-30T00:01:20.407Z,30.98
2023-04-30T00:02:20.533Z,30.99
2023-04-30T00:03:20.441Z,30.99
2023-04-30T00:04:20.496Z,31.02
2023-04-30T00:05:20.477Z,31.01
2023-04-30T00:06:20.470Z,31.03
2023-04-30T00:07:20.449Z,31.03
2023-04-30T00:08:20.456Z,31.04
2023-04-30T00:09:20.454Z,31.05
2023-04-30T00:10:20.464Z,31.03
2023-04-30T00:11:20.462Z,31.03
2023-04-30T00:12:20.490Z,31.06
2023-04-30T00:13:20.485Z,31.06
2023-04-30T00:14:20.496Z,31.05
2023-04-30T00:15:20.516Z,31.06
2023-04-30T00:16:20.532Z,31.06
2023-04-30T00:17:20.524Z,31.08
2023-04-30T00:18:20.518Z,31.07
2023-04-30T00:19:20.521Z,31.12
2023-04-30T00:20:20.521Z,31.09
2023-04-30T00:21:20.525Z,31.10
2023-04-30T00:22:20.521Z,31.08
2023-04-30T00:23:20.509Z,31.11
2023-04-30T00:24:20.536Z,31.12
2023-04-30T00:25:20.533Z,31.10
2023-04-30T00:26:20.560Z,31.15
2023-04-30T00:27:20.551Z,31.14
2023-04-30T00:28:20.561Z,31.13
2023-04-30T00:29:20.543Z,31.11
2023-04-30T00:30:20.572Z,31.13
2023-04-30T00:31:20.724Z,31.13
2023-04-30T00:32:20.621Z,31.12
2023-04-30T00:33:20.608Z,31.17
2023-04-30T00:34:20.641Z,31.14
2023-04-30T00:35:20.679Z,31.18
2023-04-30T00:36:20.696Z,31.18
2023-04-30T00:37:20.756Z,31.16
2023-04-30T00:38:20.750Z,31.16
2023-04-30T00:39:20.795Z,31.22
2023-04-30T00:40:20.825Z,31.18
2023-04-30T00:41:20.839Z,31.21
2023-04-30T00:42:20.839Z,31.23
2023-04-30T00:43:20.853Z,31.21
2023-04-30T00:44:20.831Z,31.20
2023-04-30T00:45:20.836Z,31.22
2023-04-30T00:46:20.888Z,31.24
2023-04-30T00:47:20.878Z,31.23
2023-04-30T00:48:20.905Z,31.25
2023-04-30T00:49:20.850Z,31.24
2023-04-30T00:50:20.853Z,31.21
2023-04-30T00:51:20.843Z,31.25
2023-04-30T00:52:20.831Z,31.26
2023-04-30T00:53:20.844Z,31.27
2023-04-30T00:54:20.855Z,31.27
2023-04-30T00:55:20.833Z,31.28
2023-04-30T00:56:20.845Z,31.29
2023-04-30T00:57:20.853Z,31.27
2023-04-30T00:58:20.818Z,31.29
2023-04-30T00:59:20.821Z,31.29
2023-04-30T01:00:20.815Z,31.27
2023-04-30T01:01:20.840Z,31.28
2023-04-30T01:02:21.017Z,31.27
2023-04-30T01:03:20.872Z,31.30
2023-04-30T01:04:20.800Z,31.28
2023-04-30T01:05:20.805Z,31.32
2023-04-30T01:06:20.855Z,31.30
2023-04-30T01:07:20.806Z,31.30
2023-04-30T01:08:20.799Z,31.30
2023-04-30T01:09:20.798Z,31.32
2023-04-30T01:10:20.799Z,31.36
2023-04-30T01:11:20.799Z,31.37
2023-04-30T01:12:20.790Z,31.37
2023-04-30T01:13:20.782Z,31.33
2023-04-30T01:14:20.780Z,31.35
2023-04-30T01:15:20.779Z,31.35
2023-04-30T01:16:20.862Z,31.38
2023-04-30T01:17:20.774Z,31.33
2023-04-30T01:18:20.842Z,31.35
2023-04-30T01:19:20.786Z,31.37
2023-04-30T01:20:20.758Z,31.36
2023-04-30T01:21:20.756Z,31.39
2023-04-30T01:22:20.755Z,31.38
2023-04-30T01:23:20.747Z,31.38
2023-04-30T01:24:20.734Z,31.38
2023-04-30T01:25:20.758Z,31.37
2023-04-30T01:26:20.761Z,31.38
2023-04-30T01:27:20.733Z,31.40
2023-04-30T01:28:20.728Z,31.38
2023-04-30T01:29:20.772Z,31.40
2023-04-30T01:30:20.783Z,31.41
2023-04-30T01:31:20.757Z,31.42
2023-04-30T01:32:20.763Z,31.39
2023-04-30T01:33:20.877Z,31.41
2023-04-30T01:34:20.748Z,31.43
2023-04-30T01:35:20.741Z,31.42
2023-04-30T01:36:20.750Z,31.42
2023-04-30T01:37:20.748Z,31.42
2023-04-30T01:38:20.833Z,31.43
2023-04-30T01:39:20.746Z,31.41
2023-04-30T01:40:20.784Z,31.41
2023-04-30T01:41:20.790Z,31.45
2023-04-30T01:42:20.828Z,31.43
2023-04-30T01:43:20.839Z,31.44
2023-04-30T01:44:20.863Z,31.45
2023-04-30T01:45:20.898Z,31.43
2023-04-30T01:46:20.987Z,31.46
2023-04-30T01:47:20.994Z,31.46
2023-04-30T01:48:20.957Z,31.49
2023-04-30T01:49:21.013Z,31.49
2023-04-30T01:50:21.004Z,31.49
2023-04-30T01:51:21.039Z,31.49
2023-04-30T01:52:21.051Z,31.49
2023-04-30T01:53:21.081Z,31.52
2023-04-30T01:54:21.105Z,31.49
2023-04-30T01:55:21.164Z,31.49
2023-04-30T01:56:21.167Z,31.50
2023-04-30T01:57:21.199Z,31.50
2023-04-30T01:58:21.242Z,31.48
2023-04-30T01:59:21.261Z,31.49
2023-04-30T02:00:21.312Z,31.52
2023-04-30T02:01:21.335Z,31.52
2023-04-30T02:02:21.386Z,31.50
2023-04-30T02:03:21.387Z,31.51
2023-04-30T02:04:21.297Z,31.52
2023-04-30T02:05:21.302Z,31.55
2023-04-30T02:06:21.337Z,31.50
2023-04-30T02:07:21.292Z,31.55
2023-04-30T02:08:21.293Z,31.51
2023-04-30T02:09:21.284Z,31.53
2023-04-30T02:10:21.284Z,31.53
2023-04-30T02:11:21.285Z,31.56
2023-04-30T02:12:21.287Z,31.53
2023-04-30T02:13:21.270Z,31.52
2023-04-30T02:14:21.275Z,31.52
2023-04-30T02:15:21.281Z,31.56
2023-04-30T02:16:21.318Z,31.57
2023-04-30T02:17:21.258Z,31.55
2023-04-30T02:18:21.346Z,31.54
2023-04-30T02:19:21.265Z,31.55
2023-04-30T02:20:21.309Z,31.58
2023-04-30T02:21:21.312Z,31.59
2023-04-30T02:22:21.251Z,31.55
2023-04-30T02:23:21.248Z,31.58
2023-04-30T02:24:21.259Z,31.58
2023-04-30T02:25:21.274Z,31.59
2023-04-30T02:26:21.272Z,31.59
2023-04-30T02:27:21.246Z,31.59
2023-04-30T02:28:21.268Z,31.59
2023-04-30T02:29:21.260Z,31.59
2023-04-30T02:30:21.263Z,31.58
2023-04-30T02:31:21.309Z,31.57
2023-04-30T02:32:21.409Z,31.58
2023-04-30T02:33:21.318Z,31.59
2023-04-30T02:34:21.358Z,31.60
2023-04-30T02:35:21.385Z,31.61
2023-04-30T02:36:21.430Z,31.61
2023-04-30T02:37:21.444Z,31.59
2023-04-30T02:38:21.489Z,31.59
2023-04-30T02:39:21.506Z,31.57
2023-04-30T02:40:21.540Z,31.64
2023-04-30T02:41:21.555Z,31.64
2023-04-30T02:42:21.590Z,31.61
2023-04-30T02:43:21.614Z,31.61
2023-04-30T02:44:21.641Z,31.58
2023-04-30T02:45:21.678Z,31.62
2023-04-30T02:46:21.796Z,31.64
2023-04-30T02:47:21.777Z,31.62
2023-04-30T02:48:21.760Z,31.61
2023-04-30T02:49:21.782Z,31.62
2023-04-30T02:50:21.819Z,31.61
2023-04-30T02:51:21.843Z,31.58
2023-04-30T02:52:21.874Z,31.61
2023-04-30T02:53:21.891Z,31.63
2023-04-30T02:54:21.928Z,31.63
2023-04-30T02:55:21.936Z,31.65
2023-04-30T02:56:21.970Z,31.62
2023-04-30T02:57:22.007Z,31.63
2023-04-30T02:58:22.030Z,31.61
2023-04-30T02:59:22.068Z,31.62
2023-04-30T03:00:22.073Z,31.62
2023-04-30T03:01:22.166Z,31.65
2023-04-30T03:02:22.193Z,31.63
2023-04-30T03:03:22.337Z,31.60
2023-04-30T03:04:22.289Z,31.61
2023-04-30T03:05:22.319Z,31.64
2023-04-30T03:06:22.397Z,31.65
2023-04-30T03:07:22.356Z,31.62
2023-04-30T03:08:22.393Z,31.65
2023-04-30T03:09:22.413Z,31.62
2023-04-30T03:10:22.466Z,31.61
2023-04-30T03:11:22.471Z,31.63
2023-04-30T03:12:22.491Z,31.66
2023-04-30T03:13:22.571Z,31.63
2023-04-30T03:14:22.541Z,31.64
2023-04-30T03:15:22.547Z,31.64
2023-04-30T03:16:22.627Z,31.64
2023-04-30T03:17:22.608Z,31.65
2023-04-30T03:18:22.561Z,31.65
2023-04-30T03:19:22.569Z,31.63
2023-04-30T03:20:22.575Z,31.66
2023-04-30T03:21:22.551Z,31.66
2023-04-30T03:22:22.554Z,31.65
2023-04-30T03:23:22.575Z,31.63
2023-04-30T03:24:22.557Z,31.62
2023-04-30T03:25:22.551Z,31.64
2023-04-30T03:26:22.564Z,31.65
2023-04-30T03:27:22.546Z,31.64
2023-04-30T03:28:22.552Z,31.65
2023-04-30T03:29:22.570Z,31.65
2023-04-30T03:30:22.557Z,31.64
2023-04-30T03:31:22.685Z,31.65
2023-04-30T03:32:22.571Z,31.66
2023-04-30T03:33:22.612Z,31.65
2023-04-30T03:34:22.543Z,31.65
2023-04-30T03:35:22.548Z,31.66
2023-04-30T03:36:22.569Z,31.63
2023-04-30T03:37:22.558Z,31.66
2023-04-30T03:38:22.569Z,31.63
2023-04-30T03:39:22.561Z,31.67
2023-04-30T03:40:22.596Z,31.66
2023-04-30T03:41:22.900Z,31.68
2023-04-30T03:42:22.710Z,31.66
2023-04-30T03:43:22.748Z,31.66
2023-04-30T03:44:22.805Z,31.66
2023-04-30T03:45:22.863Z,31.70
2023-04-30T03:46:22.924Z,31.66
2023-04-30T03:47:22.914Z,31.66
2023-04-30T03:48:22.938Z,31.68
2023-04-30T03:49:22.965Z,31.65
2023-04-30T03:50:22.987Z,31.66
2023-04-30T03:51:23.028Z,31.69
2023-04-30T03:52:23.060Z,31.67
2023-04-30T03:53:23.074Z,31.66
2023-04-30T03:54:23.104Z,31.65
2023-04-30T03:55:23.151Z,31.68
2023-04-30T03:56:23.283Z,31.66
2023-04-30T03:57:23.281Z,31.65
2023-04-30T03:58:23.323Z,31.66
2023-04-30T03:59:23.399Z,31.69
2023-04-30T04:00:23.459Z,31.67
2023-04-30T04:01:23.559Z,31.66
2023-04-30T04:02:23.641Z,31.66
2023-04-30T04:03:23.567Z,31.68
2023-04-30T04:04:23.696Z,31.70
2023-04-30T04:05:23.619Z,31.68
2023-04-30T04:06:23.749Z,31.70
2023-04-30T04:07:23.669Z,31.68
2023-04-30T04:08:23.699Z,31.67
2023-04-30T04:09:23.739Z,31.68
2023-04-30T04:10:23.785Z,31.68
2023-04-30T04:11:23.804Z,31.70
2023-04-30T04:12:23.819Z,31.69
2023-04-30T04:13:23.920Z,31.66
2023-04-30T04:14:23.932Z,31.69
2023-04-30T04:15:23.986Z,31.69
2023-04-30T04:16:24.117Z,31.68
2023-04-30T04:17:24.122Z,31.69
2023-04-30T04:18:24.136Z,31.70
2023-04-30T04:19:24.138Z,31.70
2023-04-30T04:20:24.224Z,31.70
2023-04-30T04:21:24.193Z,31.71
2023-04-30T04:22:24.216Z,31.66
2023-04-30T04:23:24.249Z,31.70
2023-04-30T04:24:24.285Z,31.72
2023-04-30T04:25:24.308Z,31.71
2023-04-30T04:26:24.337Z,31.70
2023-04-30T04:27:24.359Z,31.69
2023-04-30T04:28:24.396Z,31.68
2023-04-30T04:29:24.508Z,31.70
2023-04-30T04:30:24.462Z,31.70
2023-04-30T04:31:24.515Z,31.72
2023-04-30T04:32:24.533Z,31.72
2023-04-30T04:33:24.567Z,31.72
2023-04-30T04:34:24.562Z,31.72
2023-04-30T04:35:24.578Z,31.73
2023-04-30T04:36:24.611Z,31.73
2023-04-30T04:37:24.645Z,31.74
2023-04-30T04:38:24.669Z,31.71
2023-04-30T04:39:24.707Z,31.73
2023-04-30T04:40:24.721Z,31.73
2023-04-30T04:41:24.759Z,31.72
2023-04-30T04:42:24.790Z,31.72
2023-04-30T04:43:24.818Z,31.75
2023-04-30T04:44:24.860Z,31.71
2023-04-30T04:45:24.881Z,31.77
2023-04-30T04:46:24.944Z,31.72
2023-04-30T04:47:24.957Z,31.73
2023-04-30T04:48:24.944Z,31.72
2023-04-30T04:49:24.974Z,31.72
2023-04-30T04:50:25.006Z,31.74
2023-04-30T04:51:25.059Z,31.74
2023-04-30T04:52:25.110Z,31.71
2023-04-30T04:53:25.167Z,31.74
2023-04-30T04:54:25.211Z,31.75
2023-04-30T04:55:25.257Z,31.73
2023-04-30T04:56:25.327Z,31.72
2023-04-30T04:57:25.349Z,31.73
2023-04-30T04:58:25.400Z,31.72
2023-04-30T04:59:25.406Z,31.73
2023-04-30T05:00:25.433Z,31.75
2023-04-30T05:01:25.640Z,31.73
2023-04-30T05:02:25.563Z,31.75
2023-04-30T05:03:25.548Z,31.73
2023-04-30T05:04:25.474Z,31.73
2023-04-30T05:05:25.488Z,31.73
2023-04-30T05:06:25.520Z,31.74
2023-04-30T05:07:25.517Z,31.73
2023-04-30T05:08:25.505Z,31.73
2023-04-30T05:09:25.499Z,31.75
2023-04-30T05:10:25.521Z,31.74
2023-04-30T05:11:25.536Z,31.78
2023-04-30T05:12:25.508Z,31.76
2023-04-30T05:13:25.511Z,31.76
2023-04-30T05:14:25.542Z,31.74
2023-04-30T05:15:25.525Z,31.77
2023-04-30T05:16:25.629Z,31.78
2023-04-30T05:17:25.547Z,31.78
2023-04-30T05:18:25.518Z,31.79
2023-04-30T05:19:25.514Z,31.77
2023-04-30T05:20:25.541Z,31.77
2023-04-30T05:21:25.520Z,31.77
2023-04-30T05:22:25.520Z,31.78
2023-04-30T05:23:25.503Z,31.77
2023-04-30T05:24:25.526Z,31.77
2023-04-30T05:25:25.564Z,31.79
2023-04-30T05:26:25.611Z,31.81
2023-04-30T05:27:25.629Z,31.75
2023-04-30T05:28:25.648Z,31.79
2023-04-30T05:29:25.694Z,31.76
2023-04-30T05:30:25.723Z,31.77
2023-04-30T05:31:25.781Z,31.76
2023-04-30T05:32:25.791Z,31.78
2023-04-30T05:33:25.736Z,31.78
2023-04-30T05:34:25.748Z,31.76
2023-04-30T05:35:25.750Z,31.77
2023-04-30T05:36:25.729Z,31.80
2023-04-30T05:37:25.725Z,31.80
2023-04-30T05:38:25.737Z,31.79
2023-04-30T05:39:25.721Z,31.79
2023-04-30T05:40:25.731Z,31.78
2023-04-30T05:41:25.720Z,31.79
2023-04-30T05:42:25.732Z,31.79
2023-04-30T05:43:25.726Z,31.79
2023-04-30T05:44:25.744Z,31.80
2023-04-30T05:45:25.769Z,31.81
2023-04-30T05:46:25.853Z,31.78
2023-04-30T05:47:25.749Z,31.79
2023-04-30T05:48:25.751Z,31.78
2023-04-30T05:49:25.758Z,31.79
2023-04-30T05:50:25.759Z,31.81
2023-04-30T05:51:25.783Z,31.79
2023-04-30T05:52:25.788Z,31.80
2023-04-30T05:53:25.783Z,31.80
2023-04-30T05:54:25.778Z,31.78
2023-04-30T05:55:25.834Z,31.79
2023-04-30T05:56:25.787Z,31.82
2023-04-30T05:57:25.805Z,31.82
2023-04-30T05:58:25.811Z,31.79
2023-04-30T05:59:25.849Z,31.82
2023-04-30T06:00:25.876Z,31.81
2023-04-30T06:01:25.890Z,31.78
2023-04-30T06:02:26.091Z,31.80
2023-04-30T06:03:25.962Z,31.77
2023-04-30T06:04:26.016Z,31.77
2023-04-30T06:05:26.012Z,31.80
2023-04-30T06:06:26.072Z,31.76
2023-04-30T06:07:26.068Z,31.77
2023-04-30T06:08:26.098Z,31.76
2023-04-30T06:09:26.101Z,31.76
2023-04-30T06:10:26.162Z,31.77
2023-04-30T06:11:26.150Z,31.74
2023-04-30T06:12:26.188Z,31.74
2023-04-30T06:13:26.217Z,31.75
2023-04-30T06:14:26.229Z,31.75
2023-04-30T06:15:26.258Z,31.74
2023-04-30T06:16:26.348Z,31.73
2023-04-30T06:17:26.335Z,31.73
2023-04-30T06:18:26.336Z,31.72
2023-04-30T06:19:26.361Z,31.73
2023-04-30T06:20:26.379Z,31.72
2023-04-30T06:21:26.407Z,31.71
2023-04-30T06:22:26.429Z,31.68
2023-04-30T06:23:26.420Z,31.72
2023-04-30T06:24:26.418Z,31.70
2023-04-30T06:25:26.420Z,31.72
2023-04-30T06:26:26.420Z,31.70
2023-04-30T06:27:26.422Z,31.69
2023-04-30T06:28:26.429Z,31.70
2023-04-30T06:29:26.426Z,31.68
2023-04-30T06:30:26.422Z,31.69
2023-04-30T06:31:26.465Z,31.70
2023-04-30T06:32:26.429Z,31.71
2023-04-30T06:33:26.414Z,31.73
2023-04-30T06:34:26.414Z,31.71
2023-04-30T06:35:26.434Z,31.71
2023-04-30T06:36:26.428Z,31.72
2023-04-30T06:37:26.451Z,31.71
2023-04-30T06:38:26.454Z,31.73
2023-04-30T06:39:26.457Z,31.72
2023-04-30T06:40:26.477Z,31.73
2023-04-30T06:41:26.473Z,31.72
2023-04-30T06:42:26.466Z,31.72
2023-04-30T06:43:26.462Z,31.70
2023-04-30T06:44:26.464Z,31.69
2023-04-30T06:45:26.477Z,31.71
2023-04-30T06:46:26.508Z,31.71
2023-04-30T06:47:26.561Z,31.69
2023-04-30T06:48:26.502Z,31.68
2023-04-30T06:49:26.508Z,31.64
2023-04-30T06:50:26.598Z,31.67
2023-04-30T06:51:26.542Z,31.68
2023-04-30T06:52:26.592Z,31.67
2023-04-30T06:53:26.656Z,31.66
2023-04-30T06:54:26.708Z,31.66
2023-04-30T06:55:26.719Z,31.64
2023-04-30T06:56:26.631Z,31.64
2023-04-30T06:57:26.681Z,31.64
2023-04-30T06:58:26.696Z,31.64
2023-04-30T06:59:26.744Z,31.63
2023-04-30T07:00:26.724Z,31.62
2023-04-30T07:01:26.789Z,31.62
2023-04-30T07:02:26.862Z,31.63
2023-04-30T07:03:26.961Z,31.60
2023-04-30T07:04:26.877Z,31.61
2023-04-30T07:05:26.938Z,31.58
2023-04-30T07:06:27.051Z,31.59
2023-04-30T07:07:27.026Z,31.59
2023-04-30T07:08:27.041Z,31.59
2023-04-30T07:09:27.074Z,31.58
2023-04-30T07:10:27.088Z,31.57
2023-04-30T07:11:27.097Z,31.58
2023-04-30T07:12:27.141Z,31.59
2023-04-30T07:13:27.125Z,31.58
2023-04-30T07:14:27.098Z,31.57
2023-04-30T07:15:27.115Z,31.56
2023-04-30T07:16:27.180Z,31.57
2023-04-30T07:17:27.694Z,31.56
2023-04-30T07:18:27.113Z,31.56
2023-04-30T07:19:27.086Z,31.56
2023-04-30T07:20:27.098Z,31.53
2023-04-30T07:21:27.095Z,31.53
2023-04-30T07:22:27.093Z,31.50
2023-04-30T07:23:28.437Z,31.52
2023-04-30T07:24:27.080Z,31.57
2023-04-30T07:25:27.081Z,31.53
2023-04-30T07:26:27.085Z,31.50
2023-04-30T07:27:27.070Z,31.51
2023-04-30T07:28:27.077Z,31.51
2023-04-30T07:29:27.068Z,31.48
2023-04-30T07:30:27.088Z,31.47
2023-04-30T07:31:27.110Z,31.48
2023-04-30T07:32:27.087Z,31.44
2023-04-30T07:33:27.073Z,31.44
2023-04-30T07:34:27.072Z,31.44
2023-04-30T07:35:27.079Z,31.44
2023-04-30T07:36:27.090Z,31.42
2023-04-30T07:37:27.075Z,31.42
2023-04-30T07:38:27.067Z,31.43
2023-04-30T07:39:27.067Z,31.42
2023-04-30T07:40:35.871Z,31.41
2023-04-30T07:41:28.065Z,31.44
2023-04-30T07:42:27.072Z,31.43
2023-04-30T07:43:27.081Z,31.43
2023-04-30T07:44:27.068Z,31.40
2023-04-30T07:45:27.067Z,31.40
2023-04-30T07:46:27.092Z,31.41
2023-04-30T07:47:27.097Z,31.40
2023-04-30T07:48:27.074Z,31.40
2023-04-30T07:49:27.078Z,31.39
2023-04-30T07:50:27.043Z,31.39
2023-04-30T07:51:27.043Z,31.37
2023-04-30T07:52:27.042Z,31.37
2023-04-30T07:53:27.042Z,31.38
2023-04-30T07:54:27.057Z,31.37
2023-04-30T07:55:27.046Z,31.39
2023-04-30T07:56:27.032Z,31.38
2023-04-30T07:57:27.041Z,31.36
2023-04-30T07:58:27.025Z,31.34
2023-04-30T07:59:27.001Z,31.35
2023-04-30T08:00:27.004Z,31.35
2023-04-30T08:01:27.000Z,31.33
2023-04-30T08:02:27.053Z,31.33
2023-04-30T08:03:27.144Z,31.33
2023-04-30T08:04:27.073Z,31.32
2023-04-30T08:05:27.059Z,31.35
2023-04-30T08:06:27.113Z,31.32
2023-04-30T08:07:27.061Z,31.31
2023-04-30T08:08:27.033Z,31.32
2023-04-30T08:09:27.033Z,31.31
2023-04-30T08:10:27.020Z,31.30
2023-04-30T08:11:27.026Z,31.30
2023-04-30T08:12:27.022Z,31.30
2023-04-30T08:13:27.090Z,31.27
2023-04-30T08:14:26.991Z,31.28
2023-04-30T08:15:28.203Z,31.24
2023-04-30T08:16:27.006Z,31.28
2023-04-30T08:17:27.007Z,31.28
2023-04-30T08:18:26.986Z,31.27
2023-04-30T08:19:26.952Z,31.26
2023-04-30T08:20:26.935Z,31.26
2023-04-30T08:21:26.925Z,31.24
2023-04-30T08:22:26.923Z,31.26
2023-04-30T08:23:26.920Z,31.26
2023-04-30T08:24:26.923Z,31.22
2023-04-30T08:25:26.902Z,31.21
2023-04-30T08:26:26.898Z,31.22
2023-04-30T08:27:26.885Z,31.18
2023-04-30T08:28:26.861Z,31.17
2023-04-30T08:29:26.863Z,31.15
2023-04-30T08:30:26.845Z,31.13
2023-04-30T08:31:26.906Z,31.11
2023-04-30T08:32:26.916Z,31.10
2023-04-30T08:33:26.838Z,31.14
2023-04-30T08:34:26.819Z,31.09
2023-04-30T08:35:26.834Z,31.08
2023-04-30T08:36:26.802Z,31.06
2023-04-30T08:37:26.807Z,31.04
2023-04-30T08:38:28.275Z,31.00
2023-04-30T08:39:26.792Z,31.00
2023-04-30T08:40:43.453Z,31.02
2023-04-30T08:41:27.775Z,31.04
2023-04-30T08:42:26.774Z,31.05
2023-04-30T08:43:26.778Z,31.01
2023-04-30T08:44:26.746Z,31.01
2023-04-30T08:45:26.775Z,31.00
2023-04-30T08:46:26.793Z,30.99
2023-04-30T08:47:26.765Z,31.00
2023-04-30T08:48:26.722Z,30.97
2023-04-30T08:49:26.720Z,30.97
2023-04-30T08:50:26.705Z,30.97
2023-04-30T08:51:26.705Z,30.97
2023-04-30T08:52:26.702Z,30.99
2023-04-30T08:53:26.700Z,30.96
2023-04-30T08:54:26.681Z,30.94
2023-04-30T08:55:26.666Z,30.97
2023-04-30T08:56:26.663Z,30.97
2023-04-30T08:57:26.697Z,30.95
2023-04-30T08:58:26.671Z,30.94
2023-04-30T08:59:26.648Z,30.95
2023-04-30T09:00:26.635Z,30.95
2023-04-30T09:01:26.663Z,30.93
2023-04-30T09:02:26.704Z,30.94
2023-04-30T09:03:26.705Z,30.91
2023-04-30T09:04:26.621Z,30.86
2023-04-30T09:05:26.663Z,30.84
2023-04-30T09:06:26.704Z,30.83
2023-04-30T09:07:26.619Z,30.81
2023-04-30T09:08:26.590Z,30.77
2023-04-30T09:09:26.732Z,30.83
2023-04-30T09:10:26.576Z,30.80
2023-04-30T09:11:26.565Z,30.79
2023-04-30T09:12:26.566Z,30.82
2023-04-30T09:13:26.603Z,30.79
2023-04-30T09:14:26.539Z,30.79
2023-04-30T09:15:26.535Z,30.80
2023-04-30T09:16:26.796Z,30.77
2023-04-30T09:17:26.513Z,30.79
2023-04-30T09:18:26.490Z,30.80
2023-04-30T09:19:26.490Z,30.79
2023-04-30T09:20:26.493Z,30.78
2023-04-30T09:21:26.480Z,30.77
2023-04-30T09:22:26.491Z,30.78
2023-04-30T09:23:26.503Z,30.76
2023-04-30T09:24:26.505Z,30.72
2023-04-30T09:25:26.485Z,30.72
2023-04-30T09:26:26.475Z,30.71
2023-04-30T09:27:26.489Z,30.70
2023-04-30T09:28:26.504Z,30.66
2023-04-30T09:29:26.485Z,30.66
2023-04-30T09:30:26.476Z,30.64
2023-04-30T09:31:26.521Z,30.62
2023-04-30T09:32:26.510Z,30.63
2023-04-30T09:33:26.460Z,30.61
2023-04-30T09:34:26.486Z,30.61
2023-04-30T09:35:26.519Z,30.58
2023-04-30T09:36:26.526Z,30.61
2023-04-30T09:37:26.532Z,30.61
2023-04-30T09:38:26.526Z,30.61
2023-04-30T09:39:26.522Z,30.60
2023-04-30T09:40:26.545Z,30.60
2023-04-30T09:41:26.776Z,30.60
2023-04-30T09:42:26.546Z,30.58
2023-04-30T09:43:26.571Z,30.53
2023-04-30T09:44:26.568Z,30.50
2023-04-30T09:45:26.583Z,30.48
2023-04-30T09:46:26.650Z,30.44
2023-04-30T09:47:26.632Z,30.43
2023-04-30T09:48:26.670Z,30.41
2023-04-30T09:49:26.726Z,30.41
2023-04-30T09:50:26.654Z,30.42
2023-04-30T09:51:26.659Z,30.44
2023-04-30T09:52:26.648Z,30.40
2023-04-30T09:53:26.678Z,30.39
2023-04-30T09:54:26.665Z,30.38
2023-04-30T09:55:26.657Z,30.36
2023-04-30T09:56:26.681Z,30.32
2023-04-30T09:57:26.714Z,30.32
2023-04-30T09:58:26.734Z,30.29
2023-04-30T09:59:26.782Z,30.29
2023-04-30T10:00:26.850Z,30.27
2023-04-30T10:01:26.961Z,30.26
2023-04-30T10:02:26.959Z,30.22
2023-04-30T10:03:26.982Z,30.22
2023-04-30T10:04:27.172Z,30.22
2023-04-30T10:05:27.038Z,30.19
2023-04-30T10:06:27.204Z,30.20
2023-04-30T10:07:27.119Z,30.15
2023-04-30T10:08:27.178Z,30.14
2023-04-30T10:09:27.219Z,30.15
2023-04-30T10:10:27.281Z,30.17
2023-04-30T10:11:27.342Z,30.18
2023-04-30T10:12:27.361Z,30.19
2023-04-30T10:13:27.370Z,30.18
2023-04-30T10:14:27.355Z,30.16
2023-04-30T10:15:27.364Z,30.12
2023-04-30T10:16:27.423Z,30.12
2023-04-30T10:17:27.490Z,30.11
2023-04-30T10:18:27.429Z,30.07
2023-04-30T10:19:27.441Z,30.04
2023-04-30T10:20:27.416Z,30.03
2023-04-30T10:21:27.408Z,30.02
2023-04-30T10:22:27.412Z,30.00
2023-04-30T10:23:27.397Z,29.99
2023-04-30T10:24:27.371Z,29.99
2023-04-30T10:25:27.413Z,29.99
2023-04-30T10:26:27.387Z,30.02
2023-04-30T10:27:27.432Z,30.01
2023-04-30T10:28:27.483Z,30.05
2023-04-30T10:29:27.514Z,30.01
2023-04-30T10:30:27.574Z,29.98
2023-04-30T10:31:27.647Z,29.93
2023-04-30T10:32:27.790Z,29.91
2023-04-30T10:33:27.767Z,29.85
2023-04-30T10:34:27.797Z,29.81
2023-04-30T10:35:27.830Z,29.83
2023-04-30T10:36:27.828Z,29.85
2023-04-30T10:37:27.813Z,29.85
2023-04-30T10:38:27.811Z,29.88
2023-04-30T10:39:27.778Z,29.87
2023-04-30T10:40:27.794Z,29.89
2023-04-30T10:41:27.793Z,29.89
2023-04-30T10:42:27.754Z,29.85
2023-04-30T10:43:27.745Z,29.85
2023-04-30T10:44:27.744Z,29.87
2023-04-30T10:45:27.727Z,29.87
2023-04-30T10:46:27.793Z,29.87
2023-04-30T10:47:27.825Z,29.86
2023-04-30T10:48:27.770Z,29.86
2023-04-30T10:49:27.804Z,29.85
2023-04-30T10:50:27.811Z,29.85
2023-04-30T10:51:27.839Z,29.85
2023-04-30T10:52:27.893Z,29.87
2023-04-30T10:53:27.854Z,29.84
2023-04-30T10:54:27.850Z,29.84
2023-04-30T10:55:27.907Z,29.80
2023-04-30T10:56:27.871Z,29.78
2023-04-30T10:57:27.879Z,29.76
2023-04-30T10:58:27.905Z,29.73
2023-04-30T10:59:27.915Z,29.75
2023-04-30T11:00:27.921Z,29.75
2023-04-30T11:01:27.980Z,29.76
2023-04-30T11:02:27.984Z,29.77
2023-04-30T11:03:27.993Z,29.79
2023-04-30T11:04:28.053Z,29.79
2023-04-30T11:05:28.053Z,29.79
2023-04-30T11:06:28.149Z,29.80
2023-04-30T11:07:28.067Z,29.80
2023-04-30T11:08:28.054Z,29.79
2023-04-30T11:09:28.048Z,29.78
2023-04-30T11:10:28.036Z,29.77
2023-04-30T11:11:28.024Z,29.75
2023-04-30T11:12:28.017Z,29.72
2023-04-30T11:13:28.000Z,29.73
2023-04-30T11:14:27.993Z,29.69
2023-04-30T11:15:27.979Z,29.70
2023-04-30T11:16:28.006Z,29.68
2023-04-30T11:17:27.965Z,29.67
2023-04-30T11:18:27.941Z,29.67
2023-04-30T11:19:27.954Z,29.65
2023-04-30T11:20:27.936Z,29.68
2023-04-30T11:21:27.888Z,29.69
2023-04-30T11:22:27.874Z,29.68
2023-04-30T11:23:38.360Z,29.68
2023-04-30T11:24:28.612Z,29.68
2023-04-30T11:25:27.834Z,29.71
2023-04-30T11:26:27.810Z,29.68
2023-04-30T11:27:27.794Z,29.67
2023-04-30T11:28:27.803Z,29.62
2023-04-30T11:29:27.787Z,29.62
2023-04-30T11:30:27.747Z,29.60
2023-04-30T11:31:27.745Z,29.58
2023-04-30T11:32:27.766Z,29.59
2023-04-30T11:33:27.795Z,29.56
2023-04-30T11:34:27.810Z,29.55
2023-04-30T11:35:27.882Z,29.58
2023-04-30T11:36:27.878Z,29.55
2023-04-30T11:37:27.915Z,29.53
2023-04-30T11:38:27.960Z,29.51
2023-04-30T11:39:28.016Z,29.52
2023-04-30T11:40:28.161Z,29.50
2023-04-30T11:41:28.117Z,29.49
2023-04-30T11:42:28.104Z,29.47
2023-04-30T11:43:28.167Z,29.47
2023-04-30T11:44:28.206Z,29.46
2023-04-30T11:45:28.237Z,29.49
2023-04-30T11:46:28.284Z,29.47
2023-04-30T11:47:28.344Z,29.45
2023-04-30T11:48:28.381Z,29.44
2023-04-30T11:49:28.420Z,29.43
2023-04-30T11:50:28.477Z,29.38
2023-04-30T11:51:28.507Z,29.38
2023-04-30T11:52:28.572Z,29.37
2023-04-30T11:53:28.585Z,29.36
2023-04-30T11:54:28.650Z,29.35
2023-04-30T11:55:28.703Z,29.33
2023-04-30T11:56:28.760Z,29.35
2023-04-30T11:57:28.917Z,29.32
2023-04-30T11:58:28.871Z,29.30
2023-04-30T11:59:28.915Z,29.27
2023-04-30T12:00:28.980Z,29.29
2023-04-30T12:01:29.018Z,29.29
2023-04-30T12:02:29.137Z,29.24
2023-04-30T12:03:29.205Z,29.27
2023-04-30T12:04:29.275Z,29.29
2023-04-30T12:05:29.220Z,29.28
2023-04-30T12:06:29.397Z,29.25
2023-04-30T12:07:29.358Z,29.25
2023-04-30T12:08:29.378Z,29.23
2023-04-30T12:09:29.427Z,29.24
2023-04-30T12:10:29.512Z,29.23
2023-04-30T12:11:29.542Z,29.20
2023-04-30T12:12:29.592Z,29.18
2023-04-30T12:13:29.638Z,29.20
2023-04-30T12:14:29.681Z,29.18
2023-04-30T12:15:29.732Z,29.17
2023-04-30T12:16:29.828Z,29.17
2023-04-30T12:17:29.851Z,29.15
2023-04-30T12:18:29.862Z,29.13
2023-04-30T12:19:29.908Z,29.14
2023-04-30T12:20:29.964Z,29.15
2023-04-30T12:21:29.999Z,29.17
2023-04-30T12:22:30.060Z,29.12
2023-04-30T12:23:30.097Z,29.10
2023-04-30T12:24:30.153Z,29.09
2023-04-30T12:25:30.187Z,29.14
2023-04-30T12:26:30.258Z,29.11
2023-04-30T12:27:30.298Z,29.09
2023-04-30T12:28:30.284Z,29.09
2023-04-30T12:29:30.260Z,29.10
2023-04-30T12:30:30.326Z,29.06
2023-04-30T12:31:30.475Z,29.05
2023-04-30T12:32:30.474Z,29.05
2023-04-30T12:33:30.333Z,29.09
2023-04-30T12:34:32.910Z,29.07
2023-04-30T12:35:30.357Z,29.09
2023-04-30T12:36:30.272Z,29.07
2023-04-30T12:37:30.259Z,29.03
2023-04-30T12:38:30.242Z,29.06
2023-04-30T12:39:30.234Z,29.06
2023-04-30T12:40:30.208Z,29.08
2023-04-30T12:41:30.187Z,29.08
2023-04-30T12:42:30.180Z,29.06
2023-04-30T12:43:30.162Z,29.01
2023-04-30T12:44:30.148Z,29.04
2023-04-30T12:45:30.113Z,29.01
2023-04-30T12:46:30.156Z,28.98
2023-04-30T12:47:30.113Z,29.02
2023-04-30T12:48:30.100Z,29.02
2023-04-30T12:49:30.061Z,28.97
2023-04-30T12:50:30.058Z,28.98
2023-04-30T12:51:30.025Z,28.95
2023-04-30T12:52:30.007Z,28.93